sensor_id;sensor_type;location;lat;lon;timestamp;temperature;humidity
35531;DHT22;21637;53.352;-6.356;2023-04-25T00:01:13;5.70;99.90
35531;DHT22;21637;53.352;-6.356;2023-04-25T00:03:38;5.80;99.90
35531;DHT22;21637;53.352;-6.356;2023-04-25T00:06:05;5.80;99.90
35531;DHT22;21637;53.352;-6.356;2023-04-25T00:08:32;5.80;99.90
35531;DHT22;21637;53.352;-6.356;2023-04-25T00:10:58;5.80;99.90
35531;DHT22;21637;53.352;-6.356;2023-04-25T00:13:25;5.80;99.90
35531;DHT22;21637;53.352;-6.356;2023-04-25T00:15:51;5.80;99.90
35531;DHT22;21637;53.352;-6.356;2023-04-25T00:18:19;5.80;99.90
35531;DHT22;21637;53.352;-6.356;2023-04-25T00:20:44;5.80;99.90
35531;DHT22;21637;53.352;-6.356;2023-04-25T00:23:15;5.80;99.90
35531;DHT22;21637;53.352;-6.356;2023-04-25T00:25:49;5.70;99.90
35531;DHT22;21637;53.352;-6.356;2023-04-25T00:28:15;5.70;99.90
35531;DHT22;21637;53.352;-6.356;2023-04-25T00:30:41;5.70;99.90
35531;DHT22;21637;53.352;-6.356;2023-04-25T00:33:07;5.70;99.90
35531;DHT22;21637;53.352;-6.356;2023-04-25T00:35:34;5.80;99.90
35531;DHT22;21637;53.352;-6.356;2023-04-25T00:38:00;5.80;99.90
35531;DHT22;21637;53.352;-6.356;2023-04-25T00:40:26;5.80;99.90
35531;DHT22;21637;53.352;-6.356;2023-04-25T00:42:53;5.80;99.90
35531;DHT22;21637;53.352;-6.356;2023-04-25T00:45:19;5.80;99.90
35531;DHT22;21637;53.352;-6.356;2023-04-25T00:47:45;5.80;99.90
35531;DHT22;21637;53.352;-6.356;2023-04-25T00:50:11;5.90;99.90
35531;DHT22;21637;53.352;-6.356;2023-04-25T00:52:39;5.90;99.90
35531;DHT22;21637;53.352;-6.356;2023-04-25T00:55:06;5.90;99.90
35531;DHT22;21637;53.352;-6.356;2023-04-25T00:57:33;5.90;99.90
35531;DHT22;21637;53.352;-6.356;2023-04-25T00:59:59;5.90;99.90
35531;DHT22;21637;53.352;-6.356;2023-04-25T01:02:26;5.90;99.90
35531;DHT22;21637;53.352;-6.356;2023-04-25T01:04:52;5.90;99.90
35531;DHT22;21637;53.352;-6.356;2023-04-25T01:07:19;6.00;99.90
35531;DHT22;21637;53.352;-6.356;2023-04-25T01:09:46;6.00;99.90
35531;DHT22;21637;53.352;-6.356;2023-04-25T01:12:12;6.00;99.90
35531;DHT22;21637;53.352;-6.356;2023-04-25T01:14:38;6.00;99.90
35531;DHT22;21637;53.352;-6.356;2023-04-25T01:17:04;6.00;99.90
35531;DHT22;21637;53.352;-6.356;2023-04-25T01:19:30;6.10;99.90
35531;DHT22;21637;53.352;-6.356;2023-04-25T01:21:56;6.00;99.90
35531;DHT22;21637;53.352;-6.356;2023-04-25T01:24:22;6.10;99.90
35531;DHT22;21637;53.352;-6.356;2023-04-25T01:26:48;6.10;99.90
35531;DHT22;21637;53.352;-6.356;2023-04-25T01:29:19;6.10;99.90
35531;DHT22;21637;53.352;-6.356;2023-04-25T01:31:46;6.00;99.90
35531;DHT22;21637;53.352;-6.356;2023-04-25T01:34:12;6.00;99.90
35531;DHT22;21637;53.352;-6.356;2023-04-25T01:36:39;6.00;99.90
35531;DHT22;21637;53.352;-6.356;2023-04-25T01:39:04;6.00;99.90
35531;DHT22;21637;53.352;-6.356;2023-04-25T01:41:31;5.90;99.90
35531;DHT22;21637;53.352;-6.356;2023-04-25T01:43:57;5.90;99.90
35531;DHT22;21637;53.352;-6.356;2023-04-25T01:46:22;5.80;99.90
35531;DHT22;21637;53.352;-6.356;2023-04-25T01:48:48;5.70;99.90
35531;DHT22;21637;53.352;-6.356;2023-04-25T01:51:14;5.70;99.90
35531;DHT22;21637;53.352;-6.356;2023-04-25T01:53:41;5.60;99.90
35531;DHT22;21637;53.352;-6.356;2023-04-25T01:56:07;5.50;99.90
35531;DHT22;21637;53.352;-6.356;2023-04-25T01:58:33;5.40;99.90
35531;DHT22;21637;53.352;-6.356;2023-04-25T02:00:59;5.40;99.90
35531;DHT22;21637;53.352;-6.356;2023-04-25T02:03:25;5.40;99.90
35531;DHT22;21637;53.352;-6.356;2023-04-25T02:05:50;5.30;99.90
35531;DHT22;21637;53.352;-6.356;2023-04-25T02:08:17;5.20;99.90
35531;DHT22;21637;53.352;-6.356;2023-04-25T02:10:43;5.10;99.90
35531;DHT22;21637;53.352;-6.356;2023-04-25T02:13:09;5.00;99.90
35531;DHT22;21637;53.352;-6.356;2023-04-25T02:15:35;5.00;99.90
35531;DHT22;21637;53.352;-6.356;2023-04-25T02:18:00;4.90;99.90
35531;DHT22;21637;53.352;-6.356;2023-04-25T02:20:28;4.80;99.90
35531;DHT22;21637;53.352;-6.356;2023-04-25T02:22:54;4.80;99.90
35531;DHT22;21637;53.352;-6.356;2023-04-25T02:25:20;4.70;99.90
35531;DHT22;21637;53.352;-6.356;2023-04-25T02:27:47;4.70;99.90
35531;DHT22;21637;53.352;-6.356;2023-04-25T02:30:13;4.70;99.90
35531;DHT22;21637;53.352;-6.356;2023-04-25T02:32:40;4.60;99.90
35531;DHT22;21637;53.352;-6.356;2023-04-25T02:35:06;4.60;99.90
35531;DHT22;21637;53.352;-6.356;2023-04-25T02:37:34;4.60;99.90
35531;DHT22;21637;53.352;-6.356;2023-04-25T02:40:00;4.50;99.90
35531;DHT22;21637;53.352;-6.356;2023-04-25T02:42:26;4.50;99.90
35531;DHT22;21637;53.352;-6.356;2023-04-25T02:44:52;4.60;99.90
35531;DHT22;21637;53.352;-6.356;2023-04-25T02:47:18;4.60;99.90
35531;DHT22;21637;53.352;-6.356;2023-04-25T02:49:44;4.60;99.90
35531;DHT22;21637;53.352;-6.356;2023-04-25T02:52:11;4.60;99.90
35531;DHT22;21637;53.352;-6.356;2023-04-25T02:54:37;4.60;99.90
35531;DHT22;21637;53.352;-6.356;2023-04-25T02:57:03;4.60;99.90
35531;DHT22;21637;53.352;-6.356;2023-04-25T02:59:28;4.60;99.90
35531;DHT22;21637;53.352;-6.356;2023-04-25T03:01:54;4.60;99.90
35531;DHT22;21637;53.352;-6.356;2023-04-25T03:04:20;4.60;99.90
35531;DHT22;21637;53.352;-6.356;2023-04-25T03:06:46;4.60;99.90
35531;DHT22;21637;53.352;-6.356;2023-04-25T03:09:12;4.50;99.90
35531;DHT22;21637;53.352;-6.356;2023-04-25T03:11:40;4.50;99.90
35531;DHT22;21637;53.352;-6.356;2023-04-25T03:14:06;4.40;99.90
35531;DHT22;21637;53.352;-6.356;2023-04-25T03:16:32;4.50;99.90
35531;DHT22;21637;53.352;-6.356;2023-04-25T03:18:57;4.40;99.90
35531;DHT22;21637;53.352;-6.356;2023-04-25T03:21:23;4.40;99.90
35531;DHT22;21637;53.352;-6.356;2023-04-25T03:23:49;4.30;99.90
35531;DHT22;21637;53.352;-6.356;2023-04-25T03:26:15;4.30;99.90
35531;DHT22;21637;53.352;-6.356;2023-04-25T03:28:41;4.20;99.90
35531;DHT22;21637;53.352;-6.356;2023-04-25T03:31:07;4.20;99.90
35531;DHT22;21637;53.352;-6.356;2023-04-25T03:33:33;4.20;99.90
35531;DHT22;21637;53.352;-6.356;2023-04-25T03:35:58;4.10;99.90
35531;DHT22;21637;53.352;-6.356;2023-04-25T03:38:24;4.20;99.90
35531;DHT22;21637;53.352;-6.356;2023-04-25T03:40:51;4.20;99.90
35531;DHT22;21637;53.352;-6.356;2023-04-25T03:43:17;4.20;99.90
35531;DHT22;21637;53.352;-6.356;2023-04-25T03:45:42;4.10;99.90
35531;DHT22;21637;53.352;-6.356;2023-04-25T03:48:08;4.10;99.90
35531;DHT22;21637;53.352;-6.356;2023-04-25T03:50:34;4.00;99.90
35531;DHT22;21637;53.352;-6.356;2023-04-25T03:53:00;3.90;99.90
35531;DHT22;21637;53.352;-6.356;2023-04-25T03:55:26;3.90;99.90
35531;DHT22;21637;53.352;-6.356;2023-04-25T03:57:52;3.80;99.90
35531;DHT22;21637;53.352;-6.356;2023-04-25T04:00:17;3.80;99.90
35531;DHT22;21637;53.352;-6.356;2023-04-25T04:02:43;3.70;99.90
35531;DHT22;21637;53.352;-6.356;2023-04-25T04:05:09;3.70;99.90
35531;DHT22;21637;53.352;-6.356;2023-04-25T04:07:35;3.70;99.90
35531;DHT22;21637;53.352;-6.356;2023-04-25T04:10:06;3.60;99.90
35531;DHT22;21637;53.352;-6.356;2023-04-25T04:12:33;3.60;99.90
35531;DHT22;21637;53.352;-6.356;2023-04-25T04:14:59;3.50;99.90
35531;DHT22;21637;53.352;-6.356;2023-04-25T04:17:24;3.50;99.90
35531;DHT22;21637;53.352;-6.356;2023-04-25T04:19:50;3.50;99.90
35531;DHT22;21637;53.352;-6.356;2023-04-25T04:22:16;3.50;99.90
35531;DHT22;21637;53.352;-6.356;2023-04-25T04:24:42;3.40;99.90
35531;DHT22;21637;53.352;-6.356;2023-04-25T04:27:12;3.40;99.90
35531;DHT22;21637;53.352;-6.356;2023-04-25T04:29:38;3.30;99.90
35531;DHT22;21637;53.352;-6.356;2023-04-25T04:32:04;3.40;99.90
35531;DHT22;21637;53.352;-6.356;2023-04-25T04:34:30;3.30;99.90
35531;DHT22;21637;53.352;-6.356;2023-04-25T04:36:56;3.30;99.90
35531;DHT22;21637;53.352;-6.356;2023-04-25T04:39:22;3.20;99.90
35531;DHT22;21637;53.352;-6.356;2023-04-25T04:41:48;3.20;99.90
35531;DHT22;21637;53.352;-6.356;2023-04-25T04:44:14;3.20;99.90
35531;DHT22;21637;53.352;-6.356;2023-04-25T04:46:40;3.20;99.90
35531;DHT22;21637;53.352;-6.356;2023-04-25T04:49:10;3.10;99.90
35531;DHT22;21637;53.352;-6.356;2023-04-25T04:51:37;3.00;99.90
35531;DHT22;21637;53.352;-6.356;2023-04-25T04:54:03;3.00;99.90
35531;DHT22;21637;53.352;-6.356;2023-04-25T04:56:31;2.90;99.90
35531;DHT22;21637;53.352;-6.356;2023-04-25T04:58:58;2.90;99.90
35531;DHT22;21637;53.352;-6.356;2023-04-25T05:01:24;2.90;99.90
35531;DHT22;21637;53.352;-6.356;2023-04-25T05:03:51;2.80;99.90
35531;DHT22;21637;53.352;-6.356;2023-04-25T05:06:18;2.80;99.90
35531;DHT22;21637;53.352;-6.356;2023-04-25T05:08:44;2.70;99.90
35531;DHT22;21637;53.352;-6.356;2023-04-25T05:11:10;2.70;99.90
35531;DHT22;21637;53.352;-6.356;2023-04-25T05:13:36;2.70;99.90
35531;DHT22;21637;53.352;-6.356;2023-04-25T05:16:02;2.60;99.90
35531;DHT22;21637;53.352;-6.356;2023-04-25T05:18:28;2.60;99.90
35531;DHT22;21637;53.352;-6.356;2023-04-25T05:20:54;2.60;99.90
35531;DHT22;21637;53.352;-6.356;2023-04-25T05:23:19;2.60;99.90
35531;DHT22;21637;53.352;-6.356;2023-04-25T05:25:45;2.60;99.90
35531;DHT22;21637;53.352;-6.356;2023-04-25T05:28:12;2.60;99.90
35531;DHT22;21637;53.352;-6.356;2023-04-25T05:30:38;2.60;99.90
35531;DHT22;21637;53.352;-6.356;2023-04-25T05:33:04;2.50;99.90
35531;DHT22;21637;53.352;-6.356;2023-04-25T05:35:30;2.60;99.90
35531;DHT22;21637;53.352;-6.356;2023-04-25T05:37:56;2.60;99.90
35531;DHT22;21637;53.352;-6.356;2023-04-25T05:40:21;2.70;99.90
35531;DHT22;21637;53.352;-6.356;2023-04-25T05:42:47;2.70;99.90
35531;DHT22;21637;53.352;-6.356;2023-04-25T05:45:13;2.90;99.90
35531;DHT22;21637;53.352;-6.356;2023-04-25T05:47:39;3.10;99.90
35531;DHT22;21637;53.352;-6.356;2023-04-25T05:50:05;3.20;99.90
35531;DHT22;21637;53.352;-6.356;2023-04-25T05:52:31;3.30;99.90
35531;DHT22;21637;53.352;-6.356;2023-04-25T05:54:57;3.50;99.90
35531;DHT22;21637;53.352;-6.356;2023-04-25T05:57:24;3.60;99.90
35531;DHT22;21637;53.352;-6.356;2023-04-25T05:59:50;3.80;99.90
35531;DHT22;21637;53.352;-6.356;2023-04-25T06:02:16;4.00;99.90
35531;DHT22;21637;53.352;-6.356;2023-04-25T06:04:42;4.10;99.90
35531;DHT22;21637;53.352;-6.356;2023-04-25T06:07:08;4.20;99.90
35531;DHT22;21637;53.352;-6.356;2023-04-25T06:09:34;4.40;99.90
35531;DHT22;21637;53.352;-6.356;2023-04-25T06:12:00;4.50;99.90
35531;DHT22;21637;53.352;-6.356;2023-04-25T06:14:27;4.50;99.90
35531;DHT22;21637;53.352;-6.356;2023-04-25T06:16:53;4.60;99.90
35531;DHT22;21637;53.352;-6.356;2023-04-25T06:19:18;4.70;99.90
35531;DHT22;21637;53.352;-6.356;2023-04-25T06:21:44;4.80;99.90
35531;DHT22;21637;53.352;-6.356;2023-04-25T06:24:10;5.00;99.90
35531;DHT22;21637;53.352;-6.356;2023-04-25T06:26:36;5.10;99.90
35531;DHT22;21637;53.352;-6.356;2023-04-25T06:29:02;5.20;99.90
35531;DHT22;21637;53.352;-6.356;2023-04-25T06:31:27;5.30;99.90
35531;DHT22;21637;53.352;-6.356;2023-04-25T06:33:54;5.40;99.90
35531;DHT22;21637;53.352;-6.356;2023-04-25T06:36:21;5.50;99.90
35531;DHT22;21637;53.352;-6.356;2023-04-25T06:38:52;5.70;99.90
35531;DHT22;21637;53.352;-6.356;2023-04-25T06:41:18;5.70;99.90
35531;DHT22;21637;53.352;-6.356;2023-04-25T06:43:45;5.70;99.90
35531;DHT22;21637;53.352;-6.356;2023-04-25T06:46:11;5.90;99.90
35531;DHT22;21637;53.352;-6.356;2023-04-25T06:48:37;6.10;99.90
35531;DHT22;21637;53.352;-6.356;2023-04-25T06:51:03;6.10;99.90
35531;DHT22;21637;53.352;-6.356;2023-04-25T06:53:28;6.30;99.90
35531;DHT22;21637;53.352;-6.356;2023-04-25T06:55:54;6.40;99.90
35531;DHT22;21637;53.352;-6.356;2023-04-25T06:58:20;6.60;99.90
35531;DHT22;21637;53.352;-6.356;2023-04-25T07:00:45;6.70;99.90
35531;DHT22;21637;53.352;-6.356;2023-04-25T07:03:11;6.70;99.90
35531;DHT22;21637;53.352;-6.356;2023-04-25T07:05:37;6.70;99.90
35531;DHT22;21637;53.352;-6.356;2023-04-25T07:08:03;6.50;99.90
35531;DHT22;21637;53.352;-6.356;2023-04-25T07:10:29;6.50;99.90
35531;DHT22;21637;53.352;-6.356;2023-04-25T07:12:55;6.40;99.90
35531;DHT22;21637;53.352;-6.356;2023-04-25T07:15:21;6.40;99.90
35531;DHT22;21637;53.352;-6.356;2023-04-25T07:17:46;6.40;99.90
35531;DHT22;21637;53.352;-6.356;2023-04-25T07:20:12;6.70;99.90
35531;DHT22;21637;53.352;-6.356;2023-04-25T07:22:38;6.80;99.90
35531;DHT22;21637;53.352;-6.356;2023-04-25T07:25:04;6.90;99.90
35531;DHT22;21637;53.352;-6.356;2023-04-25T07:27:30;7.00;99.90
35531;DHT22;21637;53.352;-6.356;2023-04-25T07:29:56;7.00;99.90
35531;DHT22;21637;53.352;-6.356;2023-04-25T07:32:22;7.00;99.90
35531;DHT22;21637;53.352;-6.356;2023-04-25T07:34:48;7.10;99.90
35531;DHT22;21637;53.352;-6.356;2023-04-25T07:37:14;7.10;99.90
35531;DHT22;21637;53.352;-6.356;2023-04-25T07:39:40;7.20;99.90
35531;DHT22;21637;53.352;-6.356;2023-04-25T07:42:06;7.20;99.90
35531;DHT22;21637;53.352;-6.356;2023-04-25T07:44:36;7.30;99.90
35531;DHT22;21637;53.352;-6.356;2023-04-25T07:47:06;7.40;99.90
35531;DHT22;21637;53.352;-6.356;2023-04-25T07:49:36;7.40;99.90
35531;DHT22;21637;53.352;-6.356;2023-04-25T07:52:03;7.40;99.90
35531;DHT22;21637;53.352;-6.356;2023-04-25T07:54:29;7.30;99.90
35531;DHT22;21637;53.352;-6.356;2023-04-25T07:56:55;7.30;99.90
35531;DHT22;21637;53.352;-6.356;2023-04-25T07:59:21;7.20;99.90
35531;DHT22;21637;53.352;-6.356;2023-04-25T08:01:47;7.20;99.90
35531;DHT22;21637;53.352;-6.356;2023-04-25T08:04:13;7.20;99.90
35531;DHT22;21637;53.352;-6.356;2023-04-25T08:06:39;7.10;99.90
35531;DHT22;21637;53.352;-6.356;2023-04-25T08:09:05;7.20;99.90
35531;DHT22;21637;53.352;-6.356;2023-04-25T08:11:31;7.20;99.90
35531;DHT22;21637;53.352;-6.356;2023-04-25T08:13:57;7.20;99.90
35531;DHT22;21637;53.352;-6.356;2023-04-25T08:16:23;7.30;99.90
35531;DHT22;21637;53.352;-6.356;2023-04-25T08:18:50;7.50;99.90
35531;DHT22;21637;53.352;-6.356;2023-04-25T08:21:16;7.60;99.90
35531;DHT22;21637;53.352;-6.356;2023-04-25T08:23:41;7.80;99.90
35531;DHT22;21637;53.352;-6.356;2023-04-25T08:26:07;8.00;99.90
35531;DHT22;21637;53.352;-6.356;2023-04-25T08:28:33;8.10;99.90
35531;DHT22;21637;53.352;-6.356;2023-04-25T08:30:59;8.30;99.90
35531;DHT22;21637;53.352;-6.356;2023-04-25T08:33:25;8.50;99.90
35531;DHT22;21637;53.352;-6.356;2023-04-25T08:35:52;8.70;99.90
35531;DHT22;21637;53.352;-6.356;2023-04-25T08:38:18;8.70;99.90
35531;DHT22;21637;53.352;-6.356;2023-04-25T08:40:49;8.90;99.90
35531;DHT22;21637;53.352;-6.356;2023-04-25T08:43:18;9.00;99.90
35531;DHT22;21637;53.352;-6.356;2023-04-25T08:45:44;9.20;99.90
35531;DHT22;21637;53.352;-6.356;2023-04-25T08:48:16;9.30;99.90
35531;DHT22;21637;53.352;-6.356;2023-04-25T08:50:50;9.40;99.90
35531;DHT22;21637;53.352;-6.356;2023-04-25T08:53:27;9.50;99.90
35531;DHT22;21637;53.352;-6.356;2023-04-25T08:55:55;9.50;99.90
35531;DHT22;21637;53.352;-6.356;2023-04-25T08:58:21;9.40;99.90
35531;DHT22;21637;53.352;-6.356;2023-04-25T09:00:47;9.30;99.90
35531;DHT22;21637;53.352;-6.356;2023-04-25T09:03:13;9.20;99.90
35531;DHT22;21637;53.352;-6.356;2023-04-25T09:05:40;9.00;99.90
35531;DHT22;21637;53.352;-6.356;2023-04-25T09:08:07;9.00;99.90
35531;DHT22;21637;53.352;-6.356;2023-04-25T09:10:33;9.20;99.90
35531;DHT22;21637;53.352;-6.356;2023-04-25T09:13:13;9.40;99.90
35531;DHT22;21637;53.352;-6.356;2023-04-25T09:15:54;9.60;99.90
35531;DHT22;21637;53.352;-6.356;2023-04-25T09:18:27;9.70;99.90
35531;DHT22;21637;53.352;-6.356;2023-04-25T09:20:55;10.00;99.90
35531;DHT22;21637;53.352;-6.356;2023-04-25T09:23:23;10.20;99.90
35531;DHT22;21637;53.352;-6.356;2023-04-25T09:25:51;10.30;99.90
35531;DHT22;21637;53.352;-6.356;2023-04-25T09:28:24;10.20;99.90
35531;DHT22;21637;53.352;-6.356;2023-04-25T09:30:55;10.40;99.90
35531;DHT22;21637;53.352;-6.356;2023-04-25T09:33:32;10.70;99.90
35531;DHT22;21637;53.352;-6.356;2023-04-25T09:36:17;11.00;99.90
35531;DHT22;21637;53.352;-6.356;2023-04-25T09:38:46;11.10;99.90
35531;DHT22;21637;53.352;-6.356;2023-04-25T09:41:12;11.20;99.90
35531;DHT22;21637;53.352;-6.356;2023-04-25T09:43:39;11.30;99.90
35531;DHT22;21637;53.352;-6.356;2023-04-25T09:46:09;11.40;99.90
35531;DHT22;21637;53.352;-6.356;2023-04-25T09:48:35;11.30;99.90
35531;DHT22;21637;53.352;-6.356;2023-04-25T09:51:07;11.30;99.90
35531;DHT22;21637;53.352;-6.356;2023-04-25T09:53:34;11.40;99.90
35531;DHT22;21637;53.352;-6.356;2023-04-25T09:56:06;11.20;99.90
35531;DHT22;21637;53.352;-6.356;2023-04-25T09:58:33;11.10;99.90
35531;DHT22;21637;53.352;-6.356;2023-04-25T10:01:07;11.00;99.90
35531;DHT22;21637;53.352;-6.356;2023-04-25T10:03:34;11.00;99.90
35531;DHT22;21637;53.352;-6.356;2023-04-25T10:06:02;11.00;99.90
35531;DHT22;21637;53.352;-6.356;2023-04-25T10:08:32;10.90;99.90
35531;DHT22;21637;53.352;-6.356;2023-04-25T10:11:06;11.00;99.90
35531;DHT22;21637;53.352;-6.356;2023-04-25T10:13:33;11.00;99.90
35531;DHT22;21637;53.352;-6.356;2023-04-25T10:16:04;11.00;99.90
35531;DHT22;21637;53.352;-6.356;2023-04-25T10:18:31;11.00;99.90
35531;DHT22;21637;53.352;-6.356;2023-04-25T10:21:05;10.70;99.90
35531;DHT22;21637;53.352;-6.356;2023-04-25T10:23:32;10.70;99.90
35531;DHT22;21637;53.352;-6.356;2023-04-25T10:26:00;10.70;99.90
35531;DHT22;21637;53.352;-6.356;2023-04-25T10:28:26;10.70;99.90
35531;DHT22;21637;53.352;-6.356;2023-04-25T10:30:58;10.90;99.90
35531;DHT22;21637;53.352;-6.356;2023-04-25T10:33:50;10.80;99.90
35531;DHT22;21637;53.352;-6.356;2023-04-25T10:36:21;10.70;99.90
35531;DHT22;21637;53.352;-6.356;2023-04-25T10:38:48;10.70;99.90
35531;DHT22;21637;53.352;-6.356;2023-04-25T10:41:18;10.60;99.90
35531;DHT22;21637;53.352;-6.356;2023-04-25T10:43:45;10.40;99.90
35531;DHT22;21637;53.352;-6.356;2023-04-25T10:48:51;10.50;99.90
35531;DHT22;21637;53.352;-6.356;2023-04-25T10:51:32;10.70;99.90
35531;DHT22;21637;53.352;-6.356;2023-04-25T10:54:00;10.90;99.90
35531;DHT22;21637;53.352;-6.356;2023-04-25T10:56:27;11.00;99.90
35531;DHT22;21637;53.352;-6.356;2023-04-25T10:59:22;10.90;99.90
35531;DHT22;21637;53.352;-6.356;2023-04-25T11:01:52;10.90;99.90
35531;DHT22;21637;53.352;-6.356;2023-04-25T11:04:29;10.90;99.90
35531;DHT22;21637;53.352;-6.356;2023-04-25T11:07:10;10.90;99.90
35531;DHT22;21637;53.352;-6.356;2023-04-25T11:09:40;11.00;99.90
35531;DHT22;21637;53.352;-6.356;2023-04-25T11:12:08;11.10;99.90
35531;DHT22;21637;53.352;-6.356;2023-04-25T11:14:35;10.90;99.90
35531;DHT22;21637;53.352;-6.356;2023-04-25T11:17:01;10.80;99.90
35531;DHT22;21637;53.352;-6.356;2023-04-25T11:19:28;10.70;99.90
35531;DHT22;21637;53.352;-6.356;2023-04-25T11:21:59;10.70;99.90
35531;DHT22;21637;53.352;-6.356;2023-04-25T11:24:32;10.80;99.90
35531;DHT22;21637;53.352;-6.356;2023-04-25T11:27:00;10.90;99.90
35531;DHT22;21637;53.352;-6.356;2023-04-25T11:29:30;11.10;99.90
35531;DHT22;21637;53.352;-6.356;2023-04-25T11:31:56;11.20;99.90
35531;DHT22;21637;53.352;-6.356;2023-04-25T11:34:26;11.30;99.90
35531;DHT22;21637;53.352;-6.356;2023-04-25T11:36:52;11.30;99.90
35531;DHT22;21637;53.352;-6.356;2023-04-25T11:39:19;11.40;99.90
35531;DHT22;21637;53.352;-6.356;2023-04-25T11:41:46;11.50;99.90
35531;DHT22;21637;53.352;-6.356;2023-04-25T11:44:12;11.60;99.90
35531;DHT22;21637;53.352;-6.356;2023-04-25T11:46:40;11.70;99.90
35531;DHT22;21637;53.352;-6.356;2023-04-25T11:49:06;11.70;99.90
35531;DHT22;21637;53.352;-6.356;2023-04-25T11:51:39;11.70;99.90
35531;DHT22;21637;53.352;-6.356;2023-04-25T11:54:05;11.70;99.90
35531;DHT22;21637;53.352;-6.356;2023-04-25T11:56:31;11.60;99.90
35531;DHT22;21637;53.352;-6.356;2023-04-25T12:01:35;11.50;99.90
35531;DHT22;21637;53.352;-6.356;2023-04-25T12:06:40;11.00;99.90
35531;DHT22;21637;53.352;-6.356;2023-04-25T12:09:13;10.70;99.90
35531;DHT22;21637;53.352;-6.356;2023-04-25T12:11:52;10.70;99.90
35531;DHT22;21637;53.352;-6.356;2023-04-25T12:14:36;10.50;99.90
35531;DHT22;21637;53.352;-6.356;2023-04-25T12:17:03;10.60;99.90
35531;DHT22;21637;53.352;-6.356;2023-04-25T12:19:36;10.60;99.90
35531;DHT22;21637;53.352;-6.356;2023-04-25T12:22:03;10.50;99.90
35531;DHT22;21637;53.352;-6.356;2023-04-25T12:24:29;10.60;99.90
35531;DHT22;21637;53.352;-6.356;2023-04-25T12:27:03;10.60;99.90
35531;DHT22;21637;53.352;-6.356;2023-04-25T12:29:31;10.80;99.90
35531;DHT22;21637;53.352;-6.356;2023-04-25T12:31:58;10.70;99.90
35531;DHT22;21637;53.352;-6.356;2023-04-25T12:34:24;10.70;99.90
35531;DHT22;21637;53.352;-6.356;2023-04-25T12:36:51;10.70;99.90
35531;DHT22;21637;53.352;-6.356;2023-04-25T12:39:21;10.70;99.90
35531;DHT22;21637;53.352;-6.356;2023-04-25T12:41:48;10.80;99.90
35531;DHT22;21637;53.352;-6.356;2023-04-25T12:44:14;10.70;99.90
35531;DHT22;21637;53.352;-6.356;2023-04-25T12:46:40;10.80;99.90
35531;DHT22;21637;53.352;-6.356;2023-04-25T12:49:07;10.60;99.90
35531;DHT22;21637;53.352;-6.356;2023-04-25T12:51:34;10.50;99.90
35531;DHT22;21637;53.352;-6.356;2023-04-25T12:54:01;10.60;99.90
35531;DHT22;21637;53.352;-6.356;2023-04-25T12:56:28;10.80;99.90
35531;DHT22;21637;53.352;-6.356;2023-04-25T12:58:54;10.80;99.90
35531;DHT22;21637;53.352;-6.356;2023-04-25T13:01:20;11.00;99.90
35531;DHT22;21637;53.352;-6.356;2023-04-25T13:03:46;11.20;99.90
35531;DHT22;21637;53.352;-6.356;2023-04-25T13:06:13;11.10;99.90
35531;DHT22;21637;53.352;-6.356;2023-04-25T13:08:39;11.10;99.90
35531;DHT22;21637;53.352;-6.356;2023-04-25T13:11:07;11.20;99.90
35531;DHT22;21637;53.352;-6.356;2023-04-25T13:13:33;11.30;99.90
35531;DHT22;21637;53.352;-6.356;2023-04-25T13:16:01;11.10;99.90
35531;DHT22;21637;53.352;-6.356;2023-04-25T13:18:30;11.20;99.90
35531;DHT22;21637;53.352;-6.356;2023-04-25T13:20:56;11.00;99.90
35531;DHT22;21637;53.352;-6.356;2023-04-25T13:23:24;11.10;99.90
35531;DHT22;21637;53.352;-6.356;2023-04-25T13:25:50;11.20;99.90
35531;DHT22;21637;53.352;-6.356;2023-04-25T13:28:16;11.30;99.90
35531;DHT22;21637;53.352;-6.356;2023-04-25T13:30:42;11.20;99.90
35531;DHT22;21637;53.352;-6.356;2023-04-25T13:33:08;11.40;99.90
35531;DHT22;21637;53.352;-6.356;2023-04-25T13:35:35;11.40;99.90
35531;DHT22;21637;53.352;-6.356;2023-04-25T13:38:01;11.50;99.90
35531;DHT22;21637;53.352;-6.356;2023-04-25T13:40:26;11.60;99.90
35531;DHT22;21637;53.352;-6.356;2023-04-25T13:42:52;11.90;99.90
35531;DHT22;21637;53.352;-6.356;2023-04-25T13:45:19;12.10;99.90
35531;DHT22;21637;53.352;-6.356;2023-04-25T13:47:45;12.20;99.90
35531;DHT22;21637;53.352;-6.356;2023-04-25T13:50:12;12.40;99.90
35531;DHT22;21637;53.352;-6.356;2023-04-25T13:52:39;12.40;99.90
35531;DHT22;21637;53.352;-6.356;2023-04-25T13:55:06;12.30;99.90
35531;DHT22;21637;53.352;-6.356;2023-04-25T13:57:33;12.20;99.90
35531;DHT22;21637;53.352;-6.356;2023-04-25T13:59:59;12.00;99.90
35531;DHT22;21637;53.352;-6.356;2023-04-25T14:02:25;11.80;99.90
35531;DHT22;21637;53.352;-6.356;2023-04-25T14:04:51;11.70;99.90
35531;DHT22;21637;53.352;-6.356;2023-04-25T14:07:18;11.60;99.90
35531;DHT22;21637;53.352;-6.356;2023-04-25T14:09:46;11.70;99.90
35531;DHT22;21637;53.352;-6.356;2023-04-25T14:12:12;11.60;99.90
35531;DHT22;21637;53.352;-6.356;2023-04-25T14:14:38;11.60;99.90
35531;DHT22;21637;53.352;-6.356;2023-04-25T14:17:04;11.70;99.90
35531;DHT22;21637;53.352;-6.356;2023-04-25T14:19:29;11.70;99.90
35531;DHT22;21637;53.352;-6.356;2023-04-25T14:21:55;11.70;99.90
35531;DHT22;21637;53.352;-6.356;2023-04-25T14:24:21;11.70;99.90
35531;DHT22;21637;53.352;-6.356;2023-04-25T14:26:47;11.50;99.90
35531;DHT22;21637;53.352;-6.356;2023-04-25T14:29:13;11.50;99.90
35531;DHT22;21637;53.352;-6.356;2023-04-25T14:31:39;11.50;99.90
35531;DHT22;21637;53.352;-6.356;2023-04-25T14:34:05;11.40;99.90
35531;DHT22;21637;53.352;-6.356;2023-04-25T14:36:32;11.60;99.90
35531;DHT22;21637;53.352;-6.356;2023-04-25T14:38:58;11.60;99.90
35531;DHT22;21637;53.352;-6.356;2023-04-25T14:41:24;11.70;99.90
35531;DHT22;21637;53.352;-6.356;2023-04-25T14:43:51;11.80;99.90
35531;DHT22;21637;53.352;-6.356;2023-04-25T14:46:18;11.70;99.90
35531;DHT22;21637;53.352;-6.356;2023-04-25T14:48:45;11.60;99.90
35531;DHT22;21637;53.352;-6.356;2023-04-25T14:51:11;11.50;99.90
35531;DHT22;21637;53.352;-6.356;2023-04-25T14:53:37;11.30;99.90
35531;DHT22;21637;53.352;-6.356;2023-04-25T14:56:03;11.40;99.90
35531;DHT22;21637;53.352;-6.356;2023-04-25T14:58:28;11.20;99.90
35531;DHT22;21637;53.352;-6.356;2023-04-25T15:00:54;11.10;99.90
35531;DHT22;21637;53.352;-6.356;2023-04-25T15:03:20;11.20;99.90
35531;DHT22;21637;53.352;-6.356;2023-04-25T15:05:46;11.20;99.90
35531;DHT22;21637;53.352;-6.356;2023-04-25T15:08:12;11.30;99.90
35531;DHT22;21637;53.352;-6.356;2023-04-25T15:10:37;11.40;99.90
35531;DHT22;21637;53.352;-6.356;2023-04-25T15:13:04;11.30;99.90
35531;DHT22;21637;53.352;-6.356;2023-04-25T15:15:29;11.30;99.90
35531;DHT22;21637;53.352;-6.356;2023-04-25T15:17:57;11.20;99.90
35531;DHT22;21637;53.352;-6.356;2023-04-25T15:20:23;11.10;99.90
35531;DHT22;21637;53.352;-6.356;2023-04-25T15:22:49;11.10;99.90
35531;DHT22;21637;53.352;-6.356;2023-04-25T15:25:15;11.00;99.90
35531;DHT22;21637;53.352;-6.356;2023-04-25T15:27:43;11.00;99.90
35531;DHT22;21637;53.352;-6.356;2023-04-25T15:30:12;10.90;99.90
35531;DHT22;21637;53.352;-6.356;2023-04-25T15:32:41;10.90;99.90